Weather at Voc Tech Airport [CLOSED]

Public forecast

Using degrees Fahrenheit for public forecast. Weather courtesy of forecast.io.

Closest aviation weather report (METAR) to Voc Tech Airport

Closest report is McCarran International Airport, 4.0 nm (7.5 km) W. Retrieved 2022/01/27 07:56 UTC (50 minutes ago):

KLAS 270756Z 21005KT 10SM CLR 04/M09 A3022 RMK AO2 SLP234 T00441094 401280028

Closest aviation forecast (TAF) to Voc Tech Airport

Closest forecast is McCarran International Airport, 4.0 nm (7.5 km) W. Retrieved 2022/01/27 06:24 UTC (2 hours ago):

TAF KLAS 270520Z 2706/2812 24005KT P6SM SKC FM271800 04009KT P6SM SKC FM272100 03014G22KT P6SM SKC FM280400 35009KT P6SM SKC